createdAt,value
2023-04-02T00:01:48.170Z,96821.31
2023-04-02T00:06:54.942Z,96823.69
2023-04-02T00:11:57.564Z,96842.84
2023-04-02T00:17:02.202Z,96842.63
2023-04-02T00:22:09.250Z,96862.22
2023-04-02T00:27:13.975Z,96863.53
2023-04-02T00:32:41.282Z,96867.03
2023-04-02T00:37:44.363Z,96883.13
2023-04-02T00:42:48.123Z,96886.53
2023-04-02T00:47:50.948Z,96900.47
2023-04-02T00:52:54.581Z,96907.28
2023-04-02T00:57:59.142Z,96916.94
2023-04-02T01:03:28.915Z,96914.09
2023-04-02T01:08:46.150Z,96924.75
2023-04-02T01:14:18.378Z,96936.72
2023-04-02T01:19:50.446Z,96940.09
2023-04-02T01:24:58.038Z,96947.50
2023-04-02T01:30:01.748Z,96961.06
2023-04-02T01:35:03.774Z,96962.66
2023-04-02T01:40:34.605Z,96973.78
2023-04-02T01:45:36.891Z,96979.28
2023-04-02T01:50:41.669Z,96991.34
2023-04-02T01:55:50.685Z,96997.31
2023-04-02T02:00:58.576Z,97007.28
2023-04-02T02:06:02.376Z,97009.69
2023-04-02T02:11:05.692Z,97011.13
2023-04-02T02:16:14.842Z,97031.53
2023-04-02T02:21:43.751Z,97035.44
2023-04-02T02:26:48.541Z,97047.81
2023-04-02T02:31:54.567Z,97054.69
2023-04-02T02:37:06.639Z,97064.81
2023-04-02T02:42:18.537Z,97062.06
2023-04-02T02:47:25.064Z,97080.56
2023-04-02T02:52:38.291Z,97086.00
2023-04-02T02:58:15.704Z,97100.94
2023-04-02T03:03:34.315Z,97112.59
2023-04-02T03:09:22.853Z,97124.13
2023-04-02T03:14:48.868Z,97127.59
2023-04-02T03:20:32.407Z,97141.19
2023-04-02T03:25:47.244Z,97154.97
2023-04-02T03:31:01.434Z,97158.69
2023-04-02T03:36:15.468Z,97175.00
2023-04-02T03:41:31.983Z,97177.75
2023-04-02T03:46:40.910Z,97187.81
2023-04-02T03:52:02.994Z,97197.88
2023-04-02T03:57:10.201Z,97206.91
2023-04-02T04:02:45.394Z,97220.44
2023-04-02T04:07:52.253Z,97230.50
2023-04-02T04:13:01.287Z,97240.41
2023-04-02T04:18:19.450Z,97254.22
2023-04-02T04:23:30.520Z,97271.94
2023-04-02T04:28:45.890Z,97280.91
2023-04-02T04:33:54.810Z,97285.41
2023-04-02T04:39:05.663Z,97301.94
2023-04-02T04:44:19.357Z,97306.63
2023-04-02T04:49:31.548Z,97330.13
2023-04-02T04:54:39.238Z,97337.28
2023-04-02T04:59:47.711Z,97356.78
2023-04-02T05:04:52.160Z,97366.94
2023-04-02T05:09:58.780Z,97371.28
2023-04-02T05:15:10.743Z,97387.41
2023-04-02T05:20:17.198Z,97395.13
2023-04-02T05:25:27.138Z,97409.31
2023-04-02T05:30:52.804Z,97420.13
2023-04-02T05:36:11.779Z,97433.13
2023-04-02T05:41:27.167Z,97441.50
2023-04-02T05:46:36.118Z,97447.47
2023-04-02T05:51:44.038Z,97449.75
2023-04-02T05:56:50.395Z,97464.91
2023-04-02T06:02:20.470Z,97490.56
2023-04-02T06:07:27.103Z,97488.78
2023-04-02T06:12:44.631Z,97503.06
2023-04-02T06:17:51.818Z,97514.84
2023-04-02T06:23:18.966Z,97520.38
2023-04-02T06:28:30.746Z,97532.69
2023-04-02T06:33:32.441Z,97546.72
2023-04-02T06:38:36.180Z,97552.53
2023-04-02T06:43:43.936Z,97561.44
2023-04-02T06:49:14.780Z,97575.84
2023-04-02T06:54:18.058Z,97585.44
2023-04-02T06:59:23.610Z,97605.50
2023-04-02T07:04:26.115Z,97607.34
2023-04-02T07:09:28.766Z,97625.59
2023-04-02T07:14:34.061Z,97625.59
2023-04-02T07:19:35.796Z,97646.94
2023-04-02T07:24:37.496Z,97650.06
2023-04-02T07:29:44.986Z,97659.47
2023-04-02T07:34:47.187Z,97679.06
2023-04-02T07:39:49.021Z,97683.19
2023-04-02T07:44:51.279Z,97690.22
2023-04-02T07:49:54.570Z,97708.13
2023-04-02T07:54:56.449Z,97721.13
2023-04-02T07:59:58.050Z,97723.16
2023-04-02T08:04:59.672Z,97737.91
2023-04-02T08:10:01.826Z,97739.47
2023-04-02T08:15:05.876Z,97761.47
2023-04-02T08:20:07.990Z,97759.22
2023-04-02T08:25:09.888Z,97768.69
2023-04-02T08:30:12.977Z,97763.72
2023-04-02T08:35:16.429Z,97784.25
2023-04-02T08:40:40.692Z,97808.72
2023-04-02T08:45:55.709Z,97813.59
2023-04-02T08:50:58.926Z,97819.75
2023-04-02T08:56:25.285Z,97821.50
2023-04-02T09:01:47.269Z,97840.88
2023-04-02T09:06:52.435Z,97846.47
2023-04-02T09:12:00.722Z,97842.97
2023-04-02T09:17:04.466Z,97855.06
2023-04-02T09:22:22.796Z,97857.50
2023-04-02T09:27:27.648Z,97868.91
2023-04-02T09:32:44.501Z,97881.78
2023-04-02T09:37:47.645Z,97885.00
2023-04-02T09:42:49.388Z,97901.59
2023-04-02T09:47:54.004Z,97909.53
2023-04-02T09:52:55.935Z,97911.53
2023-04-02T09:58:18.530Z,97938.47
2023-04-02T10:03:27.874Z,97945.13
2023-04-02T10:08:30.976Z,97957.41
2023-04-02T10:13:51.000Z,97969.03
2023-04-02T10:18:58.189Z,97984.09
2023-04-02T10:24:00.038Z,97989.47
2023-04-02T10:29:41.561Z,98000.19
2023-04-02T10:34:58.761Z,97999.69
2023-04-02T10:40:12.969Z,98010.13
2023-04-02T10:45:36.804Z,98021.41
2023-04-02T10:50:38.718Z,98024.06
2023-04-02T10:56:10.023Z,98029.47
2023-04-02T11:01:17.369Z,98041.66
2023-04-02T11:06:23.777Z,98048.53
2023-04-02T11:11:30.497Z,98062.63
2023-04-02T11:16:33.586Z,98069.28
2023-04-02T11:21:55.060Z,98080.81
2023-04-02T11:27:11.668Z,98080.25
2023-04-02T11:32:25.133Z,98085.03
2023-04-02T11:37:41.095Z,98087.13
2023-04-02T11:42:49.974Z,98091.34
2023-04-02T11:48:08.453Z,98097.06
2023-04-02T11:53:16.917Z,98105.34
2023-04-02T11:58:48.006Z,98122.16
2023-04-02T12:04:07.475Z,98129.25
2023-04-02T12:09:36.749Z,98128.91
2023-04-02T12:14:38.336Z,98139.56
2023-04-02T12:19:40.286Z,98138.97
2023-04-02T12:24:42.206Z,98149.78
2023-04-02T12:29:43.820Z,98152.88
2023-04-02T12:34:46.572Z,98159.38
2023-04-02T12:39:53.642Z,98168.59
2023-04-02T12:44:55.508Z,98173.28
2023-04-02T12:49:59.577Z,98182.94
2023-04-02T12:55:03.760Z,98192.28
2023-04-02T13:00:21.042Z,98191.94
2023-04-02T13:05:44.228Z,98210.25
2023-04-02T13:10:51.915Z,98208.47
2023-04-02T13:16:20.357Z,98207.72
2023-04-02T13:21:28.554Z,98212.75
2023-04-02T13:26:30.693Z,98213.91
2023-04-02T13:31:33.421Z,98218.13
2023-04-02T13:36:35.652Z,98217.38
2023-04-02T13:41:43.625Z,98222.03
2023-04-02T13:46:45.503Z,98227.69
2023-04-02T13:51:52.709Z,98221.69
2023-04-02T13:56:56.033Z,98238.06
2023-04-02T14:02:21.859Z,98237.13
2023-04-02T14:07:32.866Z,98243.56
2023-04-02T14:12:45.590Z,98247.78
2023-04-02T14:18:05.537Z,98260.47
2023-04-02T14:23:07.385Z,98272.22
2023-04-02T14:28:42.766Z,98265.88
2023-04-02T14:33:56.839Z,98266.94
2023-04-02T14:39:17.802Z,98271.03
2023-04-02T14:44:23.862Z,98273.13
2023-04-02T14:49:32.719Z,98271.16
2023-04-02T14:54:43.772Z,98276.75
2023-04-02T15:00:04.669Z,98283.69
2023-04-02T15:05:14.676Z,98282.59
2023-04-02T15:10:30.981Z,98291.84
2023-04-02T15:15:41.933Z,98300.84
2023-04-02T15:21:08.582Z,98305.38
2023-04-02T15:26:22.431Z,98319.28
2023-04-02T15:31:27.932Z,98317.66
2023-04-02T15:36:36.952Z,98318.94
2023-04-02T15:41:57.589Z,98324.66
2023-04-02T15:47:22.510Z,98336.91
2023-04-02T15:52:38.644Z,98342.75
2023-04-02T15:57:53.281Z,98349.53
2023-04-02T16:03:07.284Z,98354.53
2023-04-02T16:08:18.101Z,98361.91
2023-04-02T16:13:33.792Z,98372.66
2023-04-02T16:18:47.785Z,98376.38
2023-04-02T16:23:50.571Z,98375.66
2023-04-02T16:29:19.530Z,98392.81
2023-04-02T16:34:33.274Z,98401.31
2023-04-02T16:40:09.394Z,98405.97
2023-04-02T16:45:14.048Z,98400.72
2023-04-02T16:50:38.246Z,98415.53
2023-04-02T16:55:49.339Z,98419.75
2023-04-02T17:00:57.966Z,98428.88
2023-04-02T17:06:19.530Z,98440.16
2023-04-02T17:11:32.898Z,98443.69
2023-04-02T17:16:37.768Z,98449.75
2023-04-02T17:21:45.280Z,98456.63
2023-04-02T17:27:13.944Z,98460.97
2023-04-02T17:32:26.116Z,98461.97
2023-04-02T17:37:58.628Z,98462.19
2023-04-02T17:43:48.116Z,98464.66
2023-04-02T17:49:00.707Z,98472.88
2023-04-02T17:54:19.364Z,98468.66
2023-04-02T17:59:55.411Z,98480.91
2023-04-02T18:04:57.316Z,98486.03
2023-04-02T18:10:07.905Z,98490.06
2023-04-02T18:15:12.907Z,98502.19
2023-04-02T18:20:27.830Z,98508.25
2023-04-02T18:25:42.858Z,98508.25
2023-04-02T18:30:59.985Z,98510.94
2023-04-02T18:36:18.431Z,98523.16
2023-04-02T18:41:20.273Z,98532.22
2023-04-02T18:46:25.078Z,98536.72
2023-04-02T18:51:33.976Z,98541.66
2023-04-02T18:56:39.546Z,98543.31
2023-04-02T19:01:46.703Z,98549.25
2023-04-02T19:06:57.571Z,98553.47
2023-04-02T19:11:59.235Z,98553.56
2023-04-02T19:17:06.846Z,98556.47
2023-04-02T19:22:39.572Z,98564.34
2023-04-02T19:27:51.425Z,98565.19
2023-04-02T19:33:17.625Z,98577.69
2023-04-02T19:38:57.036Z,98582.63
2023-04-02T19:43:58.874Z,98586.63
2023-04-02T19:49:14.676Z,98590.84
2023-04-02T19:54:16.332Z,98592.72
2023-04-02T19:59:18.910Z,98592.59
2023-04-02T20:04:20.721Z,98593.28
2023-04-02T20:09:22.603Z,98590.41
2023-04-02T20:14:24.216Z,98591.34
2023-04-02T20:19:26.002Z,98596.78
2023-04-02T20:24:27.754Z,98606.56
2023-04-02T20:29:31.745Z,98609.31
2023-04-02T20:34:33.418Z,98618.06
2023-04-02T20:39:35.102Z,98623.59
2023-04-02T20:44:37.753Z,98623.28
2023-04-02T20:49:39.375Z,98633.38
2023-04-02T20:54:41.131Z,98642.72
2023-04-02T20:59:42.735Z,98643.91
2023-04-02T21:04:44.394Z,98646.47
2023-04-02T21:09:46.018Z,98644.84
2023-04-02T21:14:48.608Z,98650.00
2023-04-02T21:19:50.272Z,98660.25
2023-04-02T21:24:51.919Z,98665.28
2023-04-02T21:29:53.569Z,98661.06
2023-04-02T21:34:55.385Z,98670.72
2023-04-02T21:39:57.022Z,98666.34
2023-04-02T21:44:58.704Z,98676.22
2023-04-02T21:50:00.297Z,98684.31
2023-04-02T21:55:02.004Z,98675.06
2023-04-02T22:00:08.284Z,98688.22
2023-04-02T22:05:09.969Z,98680.28
2023-04-02T22:10:11.620Z,98689.53
2023-04-02T22:15:13.225Z,98687.78
2023-04-02T22:20:15.251Z,98698.16
2023-04-02T22:25:17.424Z,98696.03
2023-04-02T22:30:19.064Z,98700.09
2023-04-02T22:35:20.788Z,98696.94
2023-04-02T22:40:22.379Z,98703.09
2023-04-02T22:45:24.026Z,98703.28
2023-04-02T22:50:25.894Z,98711.75
2023-04-02T22:55:27.597Z,98704.34
2023-04-02T23:00:29.292Z,98707.84
2023-04-02T23:05:31.205Z,98718.47
2023-04-02T23:10:35.404Z,98725.16
2023-04-02T23:15:37.316Z,98724.53
2023-04-02T23:20:40.668Z,98733.13
2023-04-02T23:25:43.061Z,98734.25
2023-04-02T23:30:44.728Z,98733.63
2023-04-02T23:35:46.386Z,98741.53
2023-04-02T23:40:48.137Z,98740.06
2023-04-02T23:45:50.507Z,98738.59
2023-04-02T23:50:52.149Z,98740.91
2023-04-02T23:55:53.903Z,98736.50
